Time;durP1;ratioP1;P1;durP2;ratioP2;P2;SDS_P1;SDS_P2;PMS_P1;PMS_P2;Temp;Humidity;BMP_temperature;BMP_pressure;BME280_temperature;BME280_humidity;BME280_pressure;Samples;Min_cycle;Max_cycle;Signal;HPM_P1;HPM_P2
2023/01/30 00:01:31;;;;;;;;;;;;;;;-3.80;100.00;101003.53;5589803;31;34901;-66
2023/01/30 00:04:38;;;;;;;;;;;;;;;-3.91;100.00;101004.88;5576389;31;34254;-66
2023/01/30 00:07:46;;;;;;;;;;;;;;;-4.02;100.00;100997.53;5576499;31;34770;-66
2023/01/30 00:10:54;;;;;;;;;;;;;;;-4.07;100.00;101000.31;5576878;31;33886;-67
2023/01/30 00:14:03;;;;;;;;;;;;;;;-4.15;100.00;100994.56;5589879;31;34306;-66
2023/01/30 00:17:10;;;;;;;;;;;;;;;-4.10;100.00;101000.41;5576297;31;34383;-67
2023/01/30 00:20:17;;;;;;;;;;;;;;;-4.35;100.00;100986.72;5589640;31;34220;-67
2023/01/30 00:23:26;;;;;;;;;;;;;;;-4.16;100.00;100986.84;5576359;31;34944;-66
2023/01/30 00:26:36;;;;;;;;;;;;;;;-4.13;100.00;100985.00;5589687;31;34882;-66
2023/01/30 00:29:46;;;;;;;;;;;;;;;-4.16;100.00;100987.69;5576646;31;34182;-67
2023/01/30 00:33:06;;;;;;;;;;;;;;;-4.29;100.00;100983.91;5589623;31;34721;-66
2023/01/30 00:36:13;;;;;;;;;;;;;;;-4.41;100.00;100974.88;5589446;31;35549;-67
2023/01/30 00:39:20;;;;;;;;;;;;;;;-4.37;100.00;100975.59;5575871;31;34542;-65
2023/01/30 00:49:29;;;;;;;;;;;;;;;-3.98;100.00;100980.97;5568555;31;34607;-67
2023/01/30 00:52:37;;;;;;;;;;;;;;;-3.94;100.00;100972.16;5589486;31;34954;-67
2023/01/30 00:55:46;;;;;;;;;;;;;;;-3.97;100.00;100969.69;5589160;31;34885;-67
2023/01/30 00:58:58;;;;;;;;;;;;;;;-3.89;100.00;100965.03;5576398;31;34309;-67
2023/01/30 01:02:09;;;;;;;;;;;;;;;-3.90;100.00;100960.75;5589199;31;34282;-67
2023/01/30 01:05:16;;;;;;;;;;;;;;;-3.96;100.00;100955.81;5591536;31;34343;-67
2023/01/30 01:08:24;;;;;;;;;;;;;;;-3.81;100.00;100962.13;5591289;31;34590;-67
2023/01/30 01:11:31;;;;;;;;;;;;;;;-3.74;100.00;100954.06;5577756;31;34431;-67
2023/01/30 01:14:42;;;;;;;;;;;;;;;-3.58;100.00;100954.22;5578837;31;34369;-67
2023/01/30 01:17:49;;;;;;;;;;;;;;;-3.69;100.00;100949.53;5591334;31;34548;-67
2023/01/30 01:20:56;;;;;;;;;;;;;;;-3.84;100.00;100954.47;5591185;31;35024;-67
2023/01/30 01:24:04;;;;;;;;;;;;;;;-3.95;100.00;100944.53;5577249;31;32852;-68
2023/01/30 01:27:12;;;;;;;;;;;;;;;-3.95;100.00;100934.19;5591370;31;34108;-67
2023/01/30 01:30:17;;;;;;;;;;;;;;;-3.93;100.00;100942.75;5591270;31;34801;-67
2023/01/30 01:33:27;;;;;;;;;;;;;;;-3.88;100.00;100943.41;5591152;31;34857;-66
2023/01/30 01:36:34;;;;;;;;;;;;;;;-3.76;100.00;100936.84;5577719;31;34481;-67
2023/01/30 01:43:25;;;;;;;;;;;;;;;-3.67;100.00;100924.34;5590887;31;35166;-66
2023/01/30 01:46:41;;;;;;;;;;;;;;;-3.63;100.00;100922.50;5591168;31;33768;-67
2023/01/30 01:49:49;;;;;;;;;;;;;;;-3.72;100.00;100913.31;5591029;31;34401;-66
2023/01/30 01:53:00;;;;;;;;;;;;;;;-3.67;100.00;100913.97;5590935;31;34890;-67
2023/01/30 01:56:13;;;;;;;;;;;;;;;-3.79;100.00;100911.06;5591019;31;34227;-67
2023/01/30 01:59:25;;;;;;;;;;;;;;;-3.89;100.00;100902.84;5591069;31;34357;-67
2023/01/30 02:02:38;;;;;;;;;;;;;;;-4.15;100.00;100900.47;5590958;31;34359;-67
2023/01/30 02:05:48;;;;;;;;;;;;;;;-4.17;100.00;100886.75;5590785;31;34239;-67
2023/01/30 02:08:59;;;;;;;;;;;;;;;-4.19;100.00;100880.78;5590561;31;34965;-67
2023/01/30 02:12:10;;;;;;;;;;;;;;;-4.13;100.00;100878.78;5564785;31;33301;-67
2023/01/30 02:15:19;;;;;;;;;;;;;;;-4.22;100.00;100862.78;5577100;31;34630;-67
2023/01/30 02:18:29;;;;;;;;;;;;;;;-4.48;100.00;100869.84;5590669;31;34269;-67
2023/01/30 02:21:56;;;;;;;;;;;;;;;-4.64;100.00;100854.97;5590717;31;34750;-67
2023/01/30 02:25:04;;;;;;;;;;;;;;;-4.75;100.00;100857.16;5590715;31;34324;-67
2023/01/30 02:28:22;;;;;;;;;;;;;;;-4.87;100.00;100850.69;5590701;31;34128;-67
2023/01/30 02:31:39;;;;;;;;;;;;;;;-4.97;100.00;100847.59;5590728;31;33897;-67
2023/01/30 02:34:50;;;;;;;;;;;;;;;-5.04;100.00;100846.19;5590577;31;34958;-67
2023/01/30 02:38:04;;;;;;;;;;;;;;;-5.05;100.00;100841.03;5590558;31;34331;-67
2023/01/30 02:41:13;;;;;;;;;;;;;;;-5.10;100.00;100833.47;5590506;31;34991;-67
2023/01/30 02:44:38;;;;;;;;;;;;;;;-4.94;100.00;100829.38;5590470;31;34176;-67
2023/01/30 02:47:55;;;;;;;;;;;;;;;-4.80;100.00;100820.25;5577084;31;34397;-67
2023/01/30 02:51:06;;;;;;;;;;;;;;;-4.72;100.00;100826.81;5590393;31;34354;-66
2023/01/30 02:54:13;;;;;;;;;;;;;;;-4.52;100.00;100815.66;5590407;31;33972;-66
2023/01/30 02:57:25;;;;;;;;;;;;;;;-4.36;100.00;100819.31;5590373;31;34447;-66
2023/01/30 03:00:46;;;;;;;;;;;;;;;-4.19;100.00;100808.25;5590320;31;34982;-67
2023/01/30 03:04:17;;;;;;;;;;;;;;;-4.11;100.00;100807.00;5577327;31;34857;-66
2023/01/30 03:07:24;;;;;;;;;;;;;;;-4.07;100.00;100802.56;5590166;31;34221;-66
2023/01/30 03:10:43;;;;;;;;;;;;;;;-4.04;100.00;100790.31;5569742;31;34938;-66
2023/01/30 03:13:53;;;;;;;;;;;;;;;-3.93;100.00;100797.62;5570538;32;34282;-67
2023/01/30 03:17:03;;;;;;;;;;;;;;;-3.86;100.00;100803.34;5570616;32;34139;-67
2023/01/30 03:20:11;;;;;;;;;;;;;;;-3.83;100.00;100790.28;5570499;32;34916;-67
2023/01/30 03:23:18;;;;;;;;;;;;;;;-3.84;100.00;100793.78;5569728;32;34636;-67
2023/01/30 03:26:28;;;;;;;;;;;;;;;-3.88;100.00;100787.91;5569691;32;34169;-66
2023/01/30 03:29:39;;;;;;;;;;;;;;;-3.81;100.00;100789.28;5570561;32;34952;-67
2023/01/30 03:32:46;;;;;;;;;;;;;;;-3.81;100.00;100793.63;5570447;32;34359;-67
2023/01/30 03:36:03;;;;;;;;;;;;;;;-3.83;100.00;100788.53;5569895;32;34309;-67
2023/01/30 03:39:11;;;;;;;;;;;;;;;-3.94;100.00;100777.78;5570461;32;34168;-67
2023/01/30 03:42:23;;;;;;;;;;;;;;;-4.03;100.00;100775.59;5569763;32;34764;-66
2023/01/30 03:45:31;;;;;;;;;;;;;;;-4.10;100.00;100776.75;5570355;32;34320;-67
2023/01/30 03:48:40;;;;;;;;;;;;;;;-4.00;100.00;100771.12;5570353;32;34377;-67
2023/01/30 03:51:47;;;;;;;;;;;;;;;-3.98;100.00;100768.47;5569512;32;34972;-67
2023/01/30 03:54:57;;;;;;;;;;;;;;;-4.01;100.00;100784.97;5570410;32;34247;-67
2023/01/30 03:58:07;;;;;;;;;;;;;;;-4.03;100.00;100773.00;5569635;32;34175;-67
2023/01/30 04:01:20;;;;;;;;;;;;;;;-4.04;100.00;100774.75;5570358;32;34222;-67
2023/01/30 04:04:31;;;;;;;;;;;;;;;-4.01;100.00;100769.44;5570212;32;34379;-67
2023/01/30 04:07:37;;;;;;;;;;;;;;;-4.00;100.00;100768.53;5527243;32;1168720;-67
2023/01/30 04:10:46;;;;;;;;;;;;;;;-4.00;100.00;100762.50;5569432;31;34352;-67
2023/01/30 04:13:56;;;;;;;;;;;;;;;-3.98;100.00;100752.94;5570172;32;35005;-67
2023/01/30 04:17:04;;;;;;;;;;;;;;;-4.06;100.00;100753.25;5570266;32;34714;-67
2023/01/30 04:20:13;;;;;;;;;;;;;;;-4.22;100.00;100749.66;5569235;32;34426;-67
2023/01/30 04:23:21;;;;;;;;;;;;;;;-4.43;100.00;100755.72;5569892;32;35049;-67
2023/01/30 04:26:29;;;;;;;;;;;;;;;-4.59;100.00;100742.56;5569872;32;34243;-67
2023/01/30 04:29:38;;;;;;;;;;;;;;;-4.68;100.00;100748.13;5570144;32;34463;-67
2023/01/30 04:32:44;;;;;;;;;;;;;;;-4.58;100.00;100738.22;5569840;32;34844;-67
2023/01/30 04:35:54;;;;;;;;;;;;;;;-4.66;100.00;100742.88;5569737;32;34362;-67
2023/01/30 04:39:03;;;;;;;;;;;;;;;-4.66;100.00;100733.38;5568981;32;34882;-68
2023/01/30 04:42:10;;;;;;;;;;;;;;;-4.75;100.00;100727.75;5569819;32;35503;-67
2023/01/30 04:45:17;;;;;;;;;;;;;;;-4.61;100.00;100722.84;5569510;32;34617;-67
2023/01/30 04:48:30;;;;;;;;;;;;;;;-4.45;100.00;100713.50;5568920;32;34938;-66
2023/01/30 04:51:35;;;;;;;;;;;;;;;-4.59;100.00;100708.91;5568621;32;33810;-67
2023/01/30 04:54:45;;;;;;;;;;;;;;;-4.77;100.00;100712.28;5568627;32;34420;-67
2023/01/30 04:57:53;;;;;;;;;;;;;;;-4.88;100.00;100712.69;5569402;32;34363;-69
2023/01/30 05:01:20;;;;;;;;;;;;;;;-4.93;100.00;100713.78;5569503;32;35158;-67
2023/01/30 05:04:27;;;;;;;;;;;;;;;-4.86;100.00;100705.72;5568614;32;33963;-68
2023/01/30 05:07:34;;;;;;;;;;;;;;;-4.60;100.00;100709.00;5562573;32;34326;-68
2023/01/30 05:10:44;;;;;;;;;;;;;;;-4.62;100.00;100710.78;5587021;31;34173;-67
2023/01/30 05:13:57;;;;;;;;;;;;;;;-4.75;100.00;100694.09;5588448;31;34320;-68
2023/01/30 05:17:05;;;;;;;;;;;;;;;-4.68;100.00;100704.13;5588839;31;34879;-68
2023/01/30 05:20:12;;;;;;;;;;;;;;;-4.69;100.00;100699.84;5588748;31;34805;-68
2023/01/30 05:23:20;;;;;;;;;;;;;;;-4.77;100.00;100703.66;5588721;31;34209;-68
2023/01/30 05:26:28;;;;;;;;;;;;;;;-4.96;100.00;100696.66;5588350;31;35153;-68
2023/01/30 05:29:37;;;;;;;;;;;;;;;-5.06;100.00;100699.66;5588609;31;34277;-68
2023/01/30 05:32:44;;;;;;;;;;;;;;;-5.09;100.00;100705.81;5588376;31;34261;-68
2023/01/30 05:35:52;;;;;;;;;;;;;;;-5.08;100.00;100696.31;5575008;31;34402;-68
2023/01/30 05:39:00;;;;;;;;;;;;;;;-5.09;100.00;100685.13;5575037;31;34789;-67
2023/01/30 05:42:07;;;;;;;;;;;;;;;-5.08;100.00;100689.38;5574093;31;34457;-68
2023/01/30 05:45:13;;;;;;;;;;;;;;;-4.96;100.00;100686.31;5574736;31;34172;-68
2023/01/30 05:48:20;;;;;;;;;;;;;;;-4.83;100.00;100686.62;5588313;31;34988;-68
2023/01/30 05:51:25;;;;;;;;;;;;;;;-4.94;100.00;100676.72;5577609;31;34511;-67
2023/01/30 05:54:30;;;;;;;;;;;;;;;-4.81;100.00;100687.44;5590793;31;34849;-68
2023/01/30 05:57:36;;;;;;;;;;;;;;;-4.99;100.00;100677.84;5577224;31;34462;-67
2023/01/30 06:00:41;;;;;;;;;;;;;;;-5.09;100.00;100686.88;5590733;31;34381;-68
2023/01/30 06:03:48;;;;;;;;;;;;;;;-4.88;100.00;100689.41;5577516;31;34875;-68
2023/01/30 06:06:53;;;;;;;;;;;;;;;-4.79;100.00;100693.34;5590620;31;34917;-68
2023/01/30 06:10:00;;;;;;;;;;;;;;;-4.69;100.00;100692.06;5590572;31;34184;-68
2023/01/30 06:13:09;;;;;;;;;;;;;;;-4.66;100.00;100686.78;5577141;31;34833;-68
2023/01/30 06:16:15;;;;;;;;;;;;;;;-4.80;100.00;100685.69;5576801;31;34293;-68
2023/01/30 06:19:18;;;;;;;;;;;;;;;-5.00;100.00;100687.34;5590424;31;34782;-68
2023/01/30 06:22:25;;;;;;;;;;;;;;;-5.04;100.00;100683.19;5563590;31;33723;-67
2023/01/30 06:25:33;;;;;;;;;;;;;;;-5.09;100.00;100684.28;5590383;31;35102;-68
2023/01/30 06:28:41;;;;;;;;;;;;;;;-5.16;100.00;100683.69;5590174;31;34372;-68
2023/01/30 06:31:46;;;;;;;;;;;;;;;-5.19;100.00;100690.72;5590300;31;34178;-68
2023/01/30 06:34:51;;;;;;;;;;;;;;;-5.17;100.00;100694.06;5590259;31;35420;-68
2023/01/30 06:37:55;;;;;;;;;;;;;;;-5.03;100.00;100694.37;5576241;31;33651;-68
2023/01/30 06:40:59;;;;;;;;;;;;;;;-4.98;100.00;100674.31;5576329;31;33965;-69
2023/01/30 06:44:03;;;;;;;;;;;;;;;-4.81;100.00;100677.06;5576429;31;34877;-68
2023/01/30 06:47:09;;;;;;;;;;;;;;;-4.60;100.00;100660.63;5589983;31;34373;-68
2023/01/30 06:50:14;;;;;;;;;;;;;;;-4.41;100.00;100669.31;5590102;31;34213;-67
2023/01/30 06:53:19;;;;;;;;;;;;;;;-4.12;100.00;100659.41;5576520;31;34272;-68
2023/01/30 06:56:23;;;;;;;;;;;;;;;-3.92;100.00;100668.88;5589790;31;34818;-68
2023/01/30 06:59:29;;;;;;;;;;;;;;;-3.74;100.00;100668.03;5574877;31;33874;-68
2023/01/30 07:02:34;;;;;;;;;;;;;;;-3.52;100.00;100660.94;5589148;31;34801;-68
2023/01/30 07:05:40;;;;;;;;;;;;;;;-3.27;100.00;100674.44;5563268;31;33948;-68
2023/01/30 07:08:48;;;;;;;;;;;;;;;-2.98;100.00;100657.44;5588846;31;34210;-68
2023/01/30 07:11:54;;;;;;;;;;;;;;;-2.80;100.00;100655.69;5564155;31;34405;-68
2023/01/30 07:14:57;;;;;;;;;;;;;;;-2.70;100.00;100654.31;5589844;31;34222;-69
2023/01/30 07:18:05;;;;;;;;;;;;;;;-2.57;100.00;100664.94;5589617;31;34851;-68
2023/01/30 07:21:10;;;;;;;;;;;;;;;-2.51;100.00;100656.81;5576500;31;34642;-68
2023/01/30 07:24:13;;;;;;;;;;;;;;;-2.56;100.00;100657.03;5589822;31;35156;-68
2023/01/30 07:27:18;;;;;;;;;;;;;;;-2.62;100.00;100653.94;5576126;31;34232;-68
2023/01/30 07:30:24;;;;;;;;;;;;;;;-2.46;100.00;100645.28;5589845;31;34420;-67
2023/01/30 07:33:29;;;;;;;;;;;;;;;-2.37;100.00;100647.41;5589853;31;34917;-67
2023/01/30 07:36:37;;;;;;;;;;;;;;;-2.54;100.00;100651.78;5576176;31;34848;-68
2023/01/30 07:39:42;;;;;;;;;;;;;;;-2.61;100.00;100648.66;5576200;31;34324;-68
2023/01/30 07:42:57;;;;;;;;;;;;;;;-2.48;100.00;100643.69;5576326;31;34916;-68
2023/01/30 07:46:02;;;;;;;;;;;;;;;-2.24;100.00;100650.22;5576053;31;34826;-68
2023/01/30 07:49:08;;;;;;;;;;;;;;;-1.90;100.00;100649.25;5589894;31;33923;-68
2023/01/30 07:52:14;;;;;;;;;;;;;;;-1.73;100.00;100636.19;5589728;31;34264;-68
2023/01/30 07:55:19;;;;;;;;;;;;;;;-1.61;100.00;100637.28;5563243;31;32426;-68
2023/01/30 07:58:23;;;;;;;;;;;;;;;-1.58;100.00;100637.09;5589536;31;34851;-68
2023/01/30 08:01:28;;;;;;;;;;;;;;;-1.52;100.00;100636.75;5589623;31;34562;-68
2023/01/30 08:04:33;;;;;;;;;;;;;;;-1.06;100.00;100628.03;5589782;31;34328;-69
2023/01/30 08:07:40;;;;;;;;;;;;;;;-0.92;100.00;100638.50;5575846;31;34885;-68
2023/01/30 08:10:47;;;;;;;;;;;;;;;-0.73;100.00;100627.03;5575937;31;34198;-69
2023/01/30 08:13:52;;;;;;;;;;;;;;;-0.69;100.00;100618.09;5589374;31;34890;-68
2023/01/30 08:16:56;;;;;;;;;;;;;;;-0.70;100.00;100611.19;5576053;31;34242;-68
2023/01/30 08:20:00;;;;;;;;;;;;;;;-0.79;100.00;100589.16;5589545;31;34893;-69
2023/01/30 08:23:07;;;;;;;;;;;;;;;-0.70;100.00;100566.91;5589518;31;34868;-68
2023/01/30 08:26:11;;;;;;;;;;;;;;;-0.68;100.00;100558.09;5589308;31;34314;-69
2023/01/30 08:29:19;;;;;;;;;;;;;;;-0.50;100.00;100551.75;5589509;31;34287;-69
2023/01/30 08:32:26;;;;;;;;;;;;;;;-0.36;100.00;100547.47;5589352;31;34134;-69
2023/01/30 08:35:30;;;;;;;;;;;;;;;-0.24;100.00;100550.13;5563001;31;33404;-68
2023/01/30 08:38:35;;;;;;;;;;;;;;;0.02;100.00;100560.72;5575899;31;33758;-69
2023/01/30 08:41:42;;;;;;;;;;;;;;;0.21;100.00;100558.63;5562994;31;33010;-69
2023/01/30 08:44:45;;;;;;;;;;;;;;;0.25;100.00;100554.88;5589427;31;34717;-69
2023/01/30 08:47:50;;;;;;;;;;;;;;;0.11;100.00;100553.16;5575920;31;34881;-69
2023/01/30 08:50:55;;;;;;;;;;;;;;;0.11;100.00;100553.16;5575470;31;34806;-68
2023/01/30 08:53:58;;;;;;;;;;;;;;;-0.31;100.00;100545.41;5575342;31;34219;-68
2023/01/30 08:57:03;;;;;;;;;;;;;;;-0.40;100.00;100552.03;5589352;31;34791;-69
2023/01/30 09:00:09;;;;;;;;;;;;;;;-0.11;100.00;100553.69;5589093;31;34173;-69
2023/01/30 09:03:14;;;;;;;;;;;;;;;-0.29;100.00;100567.03;5575242;31;33141;-69
2023/01/30 09:06:18;;;;;;;;;;;;;;;-0.06;100.00;100562.06;5588663;31;34177;-69
2023/01/30 09:09:23;;;;;;;;;;;;;;;0.08;100.00;100555.13;5588504;31;34301;-69
2023/01/30 09:12:27;;;;;;;;;;;;;;;0.05;100.00;100555.31;5588728;31;34632;-68
2023/01/30 09:15:31;;;;;;;;;;;;;;;0.10;100.00;100553.28;5588580;31;34491;-69
2023/01/30 09:18:38;;;;;;;;;;;;;;;0.44;100.00;100556.22;5588575;31;34293;-68
2023/01/30 09:21:48;;;;;;;;;;;;;;;0.54;100.00;100540.78;5588216;31;34299;-68
2023/01/30 09:24:54;;;;;;;;;;;;;;;0.57;100.00;100530.16;5589950;31;34666;-68
2023/01/30 09:27:59;;;;;;;;;;;;;;;0.80;100.00;100531.25;5577303;31;34993;-68
2023/01/30 09:31:04;;;;;;;;;;;;;;;0.59;100.00;100525.66;5564837;31;34687;-68
2023/01/30 09:34:08;;;;;;;;;;;;;;;0.52;100.00;100519.19;5591023;31;34431;-69
2023/01/30 09:37:17;;;;;;;;;;;;;;;0.87;100.00;100527.31;5591024;31;34557;-68
2023/01/30 09:40:26;;;;;;;;;;;;;;;0.80;100.00;100515.56;5577023;31;33930;-69
2023/01/30 09:43:38;;;;;;;;;;;;;;;0.85;100.00;100513.50;5591246;31;33738;-69
2023/01/30 09:46:42;;;;;;;;;;;;;;;0.75;100.00;100502.81;5577416;31;34160;-69
2023/01/30 09:49:48;;;;;;;;;;;;;;;0.88;100.00;100497.59;5591108;31;34735;-69
2023/01/30 09:53:05;;;;;;;;;;;;;;;0.95;100.00;100487.59;5591120;31;34794;-68
2023/01/30 09:56:11;;;;;;;;;;;;;;;0.85;100.00;100477.78;5576788;31;35577;-68
2023/01/30 09:59:22;;;;;;;;;;;;;;;0.71;100.00;100479.62;5577066;31;34876;-69
2023/01/30 10:02:44;;;;;;;;;;;;;;;0.58;100.00;100468.34;5590750;31;34423;-68
2023/01/30 10:05:58;;;;;;;;;;;;;;;0.54;100.00;100465.09;5590766;31;34532;-68
2023/01/30 10:09:10;;;;;;;;;;;;;;;0.66;100.00;100469.50;5590610;31;34259;-69
2023/01/30 10:12:13;;;;;;;;;;;;;;;0.75;100.00;100455.84;5564346;31;34254;-69
2023/01/30 10:15:35;;;;;;;;;;;;;;;0.94;100.00;100454.56;5577055;31;34613;-70
2023/01/30 10:18:41;;;;;;;;;;;;;;;1.31;100.00;100451.09;5590747;31;34629;-70
2023/01/30 10:21:50;;;;;;;;;;;;;;;2.00;100.00;100453.06;5576897;31;34197;-69
2023/01/30 10:24:58;;;;;;;;;;;;;;;2.17;100.00;100439.63;5590670;31;34289;-69
2023/01/30 10:28:23;;;;;;;;;;;;;;;2.55;100.00;100434.13;5577433;31;34855;-68
2023/01/30 10:31:31;;;;;;;;;;;;;;;2.73;100.00;100424.03;5576906;31;34572;-69
2023/01/30 10:34:37;;;;;;;;;;;;;;;2.24;100.00;100418.19;5590339;31;34180;-69
2023/01/30 10:37:54;;;;;;;;;;;;;;;2.18;100.00;100391.53;5577061;31;34493;-69
2023/01/30 10:41:03;;;;;;;;;;;;;;;2.17;100.00;100395.12;5590345;31;34666;-69
2023/01/30 10:44:07;;;;;;;;;;;;;;;2.12;100.00;100389.41;5563598;31;33017;-68
2023/01/30 10:47:30;;;;;;;;;;;;;;;1.99;100.00;100377.31;5576792;31;33779;-71
2023/01/30 10:50:52;;;;;;;;;;;;;;;2.17;100.00;100366.34;5590477;31;34845;-69
2023/01/30 10:54:12;;;;;;;;;;;;;;;2.37;100.00;100351.72;5576922;31;34232;-70
2023/01/30 10:57:25;;;;;;;;;;;;;;;2.28;100.00;100362.03;5590575;31;34510;-68
2023/01/30 11:00:29;;;;;;;;;;;;;;;2.00;100.00;100345.81;5590541;31;34077;-69
2023/01/30 11:03:41;;;;;;;;;;;;;;;1.88;100.00;100331.03;5576922;31;34221;-70
2023/01/30 11:06:45;;;;;;;;;;;;;;;1.91;100.00;100330.78;5576602;31;32722;-68
2023/01/30 11:09:50;;;;;;;;;;;;;;;1.69;100.00;100328.09;5590020;31;34354;-70
2023/01/30 11:12:59;;;;;;;;;;;;;;;1.76;100.00;100311.00;5576923;31;34311;-69
2023/01/30 11:16:05;;;;;;;;;;;;;;;1.75;100.00;100301.47;5576716;31;34429;-70
2023/01/30 11:19:10;;;;;;;;;;;;;;;1.38;100.00;100307.75;5576687;31;34965;-70
2023/01/30 11:22:25;;;;;;;;;;;;;;;1.88;100.00;100304.87;5590318;31;34561;-70
2023/01/30 11:25:32;;;;;;;;;;;;;;;2.15;100.00;100300.19;5590309;31;34813;-70
2023/01/30 11:28:40;;;;;;;;;;;;;;;2.38;100.00;100287.09;5564046;31;34575;-69
2023/01/30 11:31:48;;;;;;;;;;;;;;;2.06;100.00;100274.72;5576669;31;34309;-69
2023/01/30 11:35:15;;;;;;;;;;;;;;;2.08;100.00;100272.00;5589945;31;34962;-70
2023/01/30 11:38:22;;;;;;;;;;;;;;;2.08;100.00;100269.38;5550641;31;33231;-68
2023/01/30 11:41:29;;;;;;;;;;;;;;;1.93;100.00;100260.06;5576672;31;34493;-69
2023/01/30 11:44:35;;;;;;;;;;;;;;;1.89;100.00;100253.41;5590016;31;34314;-68
2023/01/30 11:47:56;;;;;;;;;;;;;;;1.85;100.00;100249.31;5575682;31;34360;-68
2023/01/30 11:51:05;;;;;;;;;;;;;;;1.96;100.00;100241.50;5576898;31;35504;-69
2023/01/30 11:54:15;;;;;;;;;;;;;;;2.02;100.00;100244.50;5589789;31;34670;-68
2023/01/30 11:57:19;;;;;;;;;;;;;;;1.96;100.00;100236.28;5589660;31;34951;-70
2023/01/30 12:00:28;;;;;;;;;;;;;;;2.01;100.00;100237.59;5563791;31;34512;-68
2023/01/30 12:03:44;;;;;;;;;;;;;;;1.62;100.00;100233.59;5589937;31;34183;-70
2023/01/30 12:07:03;;;;;;;;;;;;;;;1.75;100.00;100230.87;5576063;31;34495;-68
2023/01/30 12:10:24;;;;;;;;;;;;;;;1.68;100.00;100222.69;5589787;31;34843;-68
2023/01/30 12:13:33;;;;;;;;;;;;;;;1.64;100.00;100220.41;5575817;31;33164;-70
2023/01/30 12:16:45;;;;;;;;;;;;;;;1.75;100.00;100216.03;5589809;31;33791;-68
2023/01/30 12:19:50;;;;;;;;;;;;;;;1.71;100.00;100217.19;5589936;31;34312;-69
2023/01/30 12:23:00;;;;;;;;;;;;;;;1.70;100.00;100214.69;5575927;31;32632;-68
2023/01/30 12:26:09;;;;;;;;;;;;;;;1.67;100.00;100188.78;5575993;31;34355;-68
2023/01/30 12:29:27;;;;;;;;;;;;;;;1.46;100.00;100170.31;5589533;31;34806;-69
2023/01/30 12:32:33;;;;;;;;;;;;;;;1.46;100.00;100153.78;5575327;31;33174;-68
2023/01/30 12:36:00;;;;;;;;;;;;;;;1.50;100.00;100142.19;5563314;31;33032;-69
2023/01/30 12:39:10;;;;;;;;;;;;;;;1.64;100.00;100144.59;5553592;31;34694;-68
2023/01/30 12:42:17;;;;;;;;;;;;;;;1.53;100.00;100149.78;5589424;31;34971;-70
2023/01/30 12:45:26;;;;;;;;;;;;;;;1.64;100.00;100121.06;5589148;31;34032;-68
2023/01/30 12:48:37;;;;;;;;;;;;;;;1.52;100.00;100138.50;5589376;31;34370;-68
2023/01/30 12:52:03;;;;;;;;;;;;;;;1.61;100.00;100150.03;5589499;31;34222;-69
2023/01/30 12:55:16;;;;;;;;;;;;;;;1.68;100.00;100144.22;5575768;31;33771;-69
2023/01/30 12:58:22;;;;;;;;;;;;;;;1.66;100.00;100153.13;5575365;31;34305;-68
2023/01/30 13:01:29;;;;;;;;;;;;;;;1.65;100.00;100148.84;5589028;31;34306;-68
2023/01/30 13:04:47;;;;;;;;;;;;;;;1.65;100.00;100151.44;5575673;31;34697;-69
2023/01/30 13:08:07;;;;;;;;;;;;;;;1.56;100.00;100139.91;5576172;31;34307;-68
2023/01/30 13:11:29;;;;;;;;;;;;;;;1.59;100.00;100117.94;5588904;31;35083;-68
2023/01/30 13:14:37;;;;;;;;;;;;;;;1.67;100.00;100116.41;5575280;31;34628;-68
2023/01/30 13:17:52;;;;;;;;;;;;;;;1.74;100.00;100109.75;5575032;31;35209;-70
2023/01/30 13:21:00;;;;;;;;;;;;;;;1.65;100.00;100091.31;5588880;31;34145;-70
2023/01/30 13:24:05;;;;;;;;;;;;;;;1.54;100.00;100086.94;5575244;31;34585;-70
2023/01/30 13:27:15;;;;;;;;;;;;;;;1.41;100.00;100075.72;5588960;31;34675;-70
2023/01/30 13:30:18;;;;;;;;;;;;;;;1.42;100.00;100085.25;5575117;31;34181;-68
2023/01/30 13:33:27;;;;;;;;;;;;;;;1.54;100.00;100081.72;5588598;31;34275;-68
2023/01/30 13:36:37;;;;;;;;;;;;;;;1.60;100.00;100088.22;5574999;31;34278;-68
2023/01/30 13:39:50;;;;;;;;;;;;;;;1.66;100.00;100085.97;5588321;31;33750;-68
2023/01/30 13:42:57;;;;;;;;;;;;;;;1.75;100.00;100081.81;5574782;31;34800;-69
2023/01/30 13:46:06;;;;;;;;;;;;;;;1.79;100.00;100080.66;5588213;31;34576;-68
2023/01/30 13:49:18;;;;;;;;;;;;;;;1.88;100.00;100084.31;5588163;31;34160;-68
2023/01/30 13:52:28;;;;;;;;;;;;;;;2.06;100.00;100080.25;5588190;31;34426;-69
2023/01/30 13:55:35;;;;;;;;;;;;;;;2.27;100.00;100078.56;5588179;31;34344;-69
2023/01/30 13:58:48;;;;;;;;;;;;;;;2.30;100.00;100082.72;5574556;31;35008;-69
2023/01/30 14:02:03;;;;;;;;;;;;;;;2.30;100.00;100080.09;5587953;31;34946;-69
2023/01/30 14:05:09;;;;;;;;;;;;;;;2.10;100.00;100072.03;5574588;31;34625;-69
2023/01/30 14:08:18;;;;;;;;;;;;;;;2.07;100.00;100059.22;5573747;31;34917;-69
2023/01/30 14:11:24;;;;;;;;;;;;;;;2.12;100.00;100059.69;5590533;31;34250;-69
2023/01/30 14:14:31;;;;;;;;;;;;;;;2.19;100.00;100065.25;5590766;31;35002;-69
2023/01/30 14:17:36;;;;;;;;;;;;;;;2.09;100.00;100067.75;5590671;31;34296;-68
2023/01/30 14:20:46;;;;;;;;;;;;;;;2.14;100.00;100065.59;5576958;31;34413;-69
2023/01/30 14:24:02;;;;;;;;;;;;;;;2.15;100.00;100069.06;5590789;31;34373;-68
2023/01/30 14:27:22;;;;;;;;;;;;;;;2.11;100.00;100075.50;5590734;31;33732;-69
2023/01/30 14:30:48;;;;;;;;;;;;;;;2.24;100.00;100075.34;5576936;31;34202;-69
2023/01/30 14:33:54;;;;;;;;;;;;;;;2.20;100.00;100082.59;5590441;31;34153;-69
2023/01/30 14:37:00;;;;;;;;;;;;;;;2.09;100.00;100083.44;5577083;31;34171;-69
2023/01/30 14:40:20;;;;;;;;;;;;;;;2.10;100.00;100086.91;5590442;31;34894;-69
2023/01/30 14:43:31;;;;;;;;;;;;;;;2.04;100.00;100087.38;5590224;31;34175;-70
2023/01/30 14:46:41;;;;;;;;;;;;;;;1.95;100.00;100083.72;5590389;31;34152;-69
2023/01/30 14:49:59;;;;;;;;;;;;;;;1.75;100.00;100087.03;5590511;31;34341;-70
2023/01/30 14:53:03;;;;;;;;;;;;;;;1.54;100.00;100088.72;5576758;31;34461;-70
2023/01/30 14:56:08;;;;;;;;;;;;;;;1.48;100.00;100079.56;5576836;31;35516;-70
2023/01/30 14:59:15;;;;;;;;;;;;;;;1.45;100.00;100078.97;5590470;31;34646;-69
2023/01/30 15:02:29;;;;;;;;;;;;;;;1.34;100.00;100079.78;5576634;31;34741;-69
2023/01/30 15:05:42;;;;;;;;;;;;;;;1.24;100.00;100069.19;5576745;31;34833;-69
2023/01/30 15:08:47;;;;;;;;;;;;;;;1.19;100.00;100075.69;5576252;31;34723;-69
2023/01/30 15:12:07;;;;;;;;;;;;;;;1.19;100.00;100076.53;5576675;31;34368;-69
2023/01/30 15:15:18;;;;;;;;;;;;;;;1.25;100.00;100073.47;5589983;31;34256;-70
2023/01/30 15:18:26;;;;;;;;;;;;;;;1.34;100.00;100076.31;5589945;31;34923;-70
2023/01/30 15:21:49;;;;;;;;;;;;;;;1.27;100.00;100086.41;5588862;31;34319;-70
2023/01/30 15:24:54;;;;;;;;;;;;;;;1.24;100.00;100082.25;5589100;31;34534;-70
2023/01/30 15:27:58;;;;;;;;;;;;;;;1.25;100.00;100080.47;5576186;31;34954;-70
2023/01/30 15:31:02;;;;;;;;;;;;;;;1.32;100.00;100071.19;5589919;31;34321;-70
2023/01/30 15:34:18;;;;;;;;;;;;;;;1.28;100.00;100067.16;5589589;31;34188;-70
2023/01/30 15:37:33;;;;;;;;;;;;;;;1.35;100.00;100067.53;5589946;31;34982;-69
2023/01/30 15:40:39;;;;;;;;;;;;;;;1.37;100.00;100081.31;5589847;31;34358;-69
2023/01/30 15:43:59;;;;;;;;;;;;;;;1.39;100.00;100079.44;5563664;31;34363;-69
2023/01/30 15:47:24;;;;;;;;;;;;;;;1.33;100.00;100101.63;5588635;31;34254;-69
2023/01/30 15:50:28;;;;;;;;;;;;;;;1.20;100.00;100096.50;5576003;31;34240;-70
2023/01/30 15:53:35;;;;;;;;;;;;;;;1.00;100.00;100094.53;5589796;31;34928;-71
2023/01/30 15:56:39;;;;;;;;;;;;;;;0.89;100.00;100076.22;5576322;31;35015;-71
2023/01/30 15:59:45;;;;;;;;;;;;;;;0.77;100.00;100079.75;5589524;31;34948;-72
2023/01/30 16:02:52;;;;;;;;;;;;;;;0.73;100.00;100086.09;5589706;31;34852;-70
2023/01/30 16:05:57;;;;;;;;;;;;;;;0.74;100.00;100093.84;5576102;31;34839;-71
2023/01/30 16:09:07;;;;;;;;;;;;;;;0.70;100.00;100096.78;5589532;31;34910;-71
2023/01/30 16:12:26;;;;;;;;;;;;;;;0.70;100.00;100104.63;5576188;31;34276;-70
2023/01/30 16:15:33;;;;;;;;;;;;;;;0.77;100.00;100104.06;5590050;31;35009;-70